Time;durP1;ratioP1;P1;durP2;ratioP2;P2;SDS_P1;SDS_P2;PMS_P1;PMS_P2;Temp;Humidity;BMP_temperature;BMP_pressure;BME280_temperature;BME280_humidity;BME280_pressure;Samples;Min_cycle;Max_cycle;Signal;HPM_P1;HPM_P2
2023/10/21 00:02:05;;;;;;;3.65;1.08;;;10.40;99.90;;;;;;5026805;28;20116;-81
2023/10/21 00:04:31;;;;;;;2.40;1.30;;;10.30;99.90;;;;;;5024869;28;20415;-82
2023/10/21 00:06:57;;;;;;;2.90;1.20;;;10.30;99.90;;;;;;5027175;28;20045;-82
2023/10/21 00:09:22;;;;;;;2.83;1.13;;;10.30;99.90;;;;;;5027058;28;20037;-82
2023/10/21 00:11:48;;;;;;;2.80;1.30;;;10.20;99.90;;;;;;5025632;28;20025;-81
2023/10/21 00:14:14;;;;;;;2.77;1.10;;;10.20;99.90;;;;;;5023800;28;20156;-82
2023/10/21 00:16:40;;;;;;;3.47;1.30;;;10.20;99.90;;;;;;5023381;28;20033;-81
2023/10/21 00:19:05;;;;;;;2.25;1.20;;;10.20;99.90;;;;;;5023732;28;20110;-81
2023/10/21 00:21:31;;;;;;;1.42;1.10;;;10.10;99.90;;;;;;5023517;28;20979;-82
2023/10/21 00:23:56;;;;;;;2.08;0.90;;;10.10;99.90;;;;;;5023041;28;20859;-82
2023/10/21 00:26:22;;;;;;;1.27;1.00;;;10.10;99.90;;;;;;5023221;28;20600;-81
2023/10/21 00:28:48;;;;;;;1.85;1.10;;;10.10;99.90;;;;;;5022670;28;20029;-82
2023/10/21 00:31:14;;;;;;;2.95;1.10;;;10.10;99.90;;;;;;5023556;28;20022;-82
2023/10/21 00:33:39;;;;;;;3.28;1.00;;;10.10;99.90;;;;;;5021910;28;20091;-82
2023/10/21 00:36:05;;;;;;;4.60;1.13;;;10.00;99.90;;;;;;5023556;28;20064;-82
2023/10/21 00:38:30;;;;;;;3.47;1.08;;;10.00;99.90;;;;;;5021712;28;20029;-82
2023/10/21 00:40:56;;;;;;;1.80;1.10;;;10.00;99.90;;;;;;5021902;28;20117;-82
2023/10/21 00:43:36;;;;;;;1.55;0.90;;;10.00;99.90;;;;;;5023287;28;20026;-82
2023/10/21 00:46:06;;;;;;;2.08;1.30;;;10.00;99.90;;;;;;5019718;28;20029;-82
2023/10/21 00:48:32;;;;;;;2.45;1.30;;;9.90;99.90;;;;;;5020961;28;20052;-82
2023/10/21 00:50:58;;;;;;;2.03;1.40;;;9.90;99.90;;;;;;5021062;28;20045;-82
2023/10/21 00:53:24;;;;;;;3.67;1.30;;;9.90;99.90;;;;;;5022894;28;20041;-82
2023/10/21 00:55:51;;;;;;;2.00;1.50;;;9.90;99.90;;;;;;5020388;28;20510;-82
2023/10/21 00:58:18;;;;;;;1.70;1.23;;;9.90;99.90;;;;;;5021544;28;20034;-82
2023/10/21 01:00:43;;;;;;;1.33;1.07;;;9.80;99.90;;;;;;5019272;28;20034;-82
2023/10/21 01:03:09;;;;;;;2.42;1.20;;;9.70;99.90;;;;;;5019559;28;20036;-82
2023/10/21 01:05:34;;;;;;;2.90;1.20;;;9.70;99.90;;;;;;5019682;28;20056;-82
2023/10/21 01:08:00;;;;;;;3.40;1.30;;;9.70;99.90;;;;;;5019027;28;20022;-82
2023/10/21 01:10:26;;;;;;;3.67;1.47;;;9.70;99.90;;;;;;5019383;28;20049;-82
2023/10/21 01:12:51;;;;;;;2.73;1.30;;;9.60;99.90;;;;;;5019957;28;20060;-82
2023/10/21 01:15:17;;;;;;;2.40;1.30;;;9.60;99.90;;;;;;5020740;28;20793;-82
2023/10/21 01:17:50;;;;;;;1.67;1.10;;;9.60;99.90;;;;;;5021780;28;20037;-82
2023/10/21 01:20:17;;;;;;;4.23;1.30;;;9.60;99.90;;;;;;5020990;28;20057;-82
2023/10/21 01:22:43;;;;;;;2.63;1.13;;;9.60;99.90;;;;;;5021785;28;20101;-82
2023/10/21 01:25:09;;;;;;;2.20;1.30;;;9.60;99.90;;;;;;5020921;28;20144;-82
2023/10/21 01:27:35;;;;;;;1.80;1.27;;;9.60;99.90;;;;;;5022687;28;20152;-82
2023/10/21 01:30:00;;;;;;;1.63;1.10;;;9.60;99.90;;;;;;5021852;28;20040;-82
2023/10/21 01:32:26;;;;;;;3.17;1.20;;;9.60;99.90;;;;;;5021031;28;20030;-82
2023/10/21 01:34:51;;;;;;;1.13;1.00;;;9.60;99.90;;;;;;5020946;28;20029;-82
2023/10/21 01:37:17;;;;;;;1.73;1.10;;;9.60;99.90;;;;;;5022594;28;20032;-82
2023/10/21 01:39:43;;;;;;;1.63;1.10;;;9.50;99.90;;;;;;5023281;28;20029;-82
2023/10/21 01:42:09;;;;;;;1.80;1.00;;;9.50;99.90;;;;;;5022567;28;20496;-82
2023/10/21 01:44:35;;;;;;;2.00;1.03;;;9.50;99.90;;;;;;5021190;28;20034;-82
2023/10/21 01:47:00;;;;;;;1.80;1.10;;;9.50;99.90;;;;;;5022931;28;20037;-82
2023/10/21 01:49:26;;;;;;;1.53;1.20;;;9.50;99.90;;;;;;5022346;28;20025;-82
2023/10/21 01:51:51;;;;;;;1.70;1.10;;;9.50;99.90;;;;;;5022586;28;20025;-82
2023/10/21 01:54:17;;;;;;;2.80;1.03;;;9.50;99.90;;;;;;5022040;28;20113;-82
2023/10/21 01:56:42;;;;;;;2.08;1.10;;;9.50;99.90;;;;;;5021448;28;20526;-82
2023/10/21 01:59:08;;;;;;;3.30;0.90;;;9.50;99.90;;;;;;5021181;28;20064;-82
2023/10/21 02:01:34;;;;;;;1.13;0.80;;;9.60;99.90;;;;;;5020150;28;20059;-82
2023/10/21 02:04:00;;;;;;;6.07;1.30;;;9.60;99.90;;;;;;5021660;28;20064;-82
2023/10/21 02:06:26;;;;;;;3.00;1.30;;;9.60;99.90;;;;;;5021839;28;20037;-82
2023/10/21 02:08:53;;;;;;;4.47;1.23;;;9.60;99.90;;;;;;5021143;28;20105;-82
2023/10/21 02:11:24;;;;;;;2.75;1.10;;;9.60;99.90;;;;;;5020549;28;20038;-82
2023/10/21 02:13:49;;;;;;;2.30;1.10;;;9.60;99.90;;;;;;5019737;28;20052;-82
2023/10/21 02:16:15;;;;;;;3.63;1.10;;;9.60;99.90;;;;;;5020780;28;20025;-82
2023/10/21 02:18:41;;;;;;;3.08;1.20;;;9.60;99.90;;;;;;5019847;28;21386;-82
2023/10/21 02:21:07;;;;;;;1.57;1.17;;;9.50;99.90;;;;;;5020891;28;20025;-82
2023/10/21 02:23:33;;;;;;;2.30;1.10;;;9.60;99.90;;;;;;5020431;28;20021;-82
2023/10/21 02:26:06;;;;;;;1.53;1.10;;;9.60;99.90;;;;;;5019498;28;20049;-81
2023/10/21 02:28:32;;;;;;;2.00;1.10;;;9.60;99.90;;;;;;5029314;28;20129;-81
2023/10/21 02:31:03;;;;;;;1.00;0.90;;;9.60;99.90;;;;;;5029785;28;20088;-83
2023/10/21 02:33:28;;;;;;;3.57;1.00;;;9.70;99.90;;;;;;5022688;28;20037;-82
2023/10/21 02:35:55;;;;;;;1.77;1.00;;;9.70;99.90;;;;;;5020157;28;20117;-82
2023/10/21 02:38:22;;;;;;;1.80;0.80;;;9.80;99.90;;;;;;5020311;28;20514;-82
2023/10/21 02:40:48;;;;;;;1.23;0.80;;;9.80;99.90;;;;;;5019300;28;20029;-82
2023/10/21 02:43:14;;;;;;;1.42;0.93;;;9.90;99.90;;;;;;5020400;28;20035;-82
2023/10/21 02:45:39;;;;;;;1.27;0.88;;;9.90;99.90;;;;;;5019568;28;20108;-82
2023/10/21 02:48:06;;;;;;;2.80;0.90;;;10.00;99.90;;;;;;5020073;28;20063;-82
2023/10/21 02:50:31;;;;;;;1.30;0.90;;;10.00;99.90;;;;;;5021467;28;20026;-82
2023/10/21 02:52:57;;;;;;;1.25;0.90;;;10.10;99.90;;;;;;5022560;28;20045;-82
2023/10/21 02:55:24;;;;;;;1.87;0.90;;;10.10;99.90;;;;;;5022628;28;20033;-82
2023/10/21 02:57:50;;;;;;;1.02;0.80;;;10.10;99.90;;;;;;5020770;28;20041;-82
2023/10/21 03:00:16;;;;;;;1.48;0.98;;;10.10;99.90;;;;;;5021155;28;20033;-82
2023/10/21 03:02:44;;;;;;;1.63;1.00;;;10.20;99.90;;;;;;5020529;28;20554;-81
2023/10/21 03:05:11;;;;;;;2.30;0.88;;;10.20;99.90;;;;;;5019488;28;20037;-81
2023/10/21 03:07:37;;;;;;;1.88;1.05;;;10.20;99.90;;;;;;5021654;28;20084;-81
2023/10/21 03:10:03;;;;;;;1.13;0.80;;;10.20;99.90;;;;;;5021720;28;20041;-81
2023/10/21 03:12:29;;;;;;;3.03;0.80;;;10.20;99.90;;;;;;5023087;28;20101;-81
2023/10/21 03:14:56;;;;;;;1.42;0.60;;;10.30;99.90;;;;;;5021580;28;20079;-81
2023/10/21 03:17:22;;;;;;;0.85;0.70;;;10.30;99.90;;;;;;5024921;28;21403;-81
2023/10/21 03:19:47;;;;;;;1.67;0.90;;;10.30;99.90;;;;;;5024485;28;20029;-81
2023/10/21 03:22:13;;;;;;;1.73;0.70;;;10.30;99.90;;;;;;5020641;28;20028;-81
2023/10/21 03:24:38;;;;;;;1.48;0.70;;;10.30;99.90;;;;;;5023065;28;20038;-82
2023/10/21 03:27:04;;;;;;;2.72;0.90;;;10.30;99.90;;;;;;5026216;28;20096;-82
2023/10/21 03:29:29;;;;;;;2.25;0.80;;;10.30;99.90;;;;;;5025402;28;20026;-82
2023/10/21 03:31:55;;;;;;;2.00;0.95;;;10.30;99.90;;;;;;5024156;28;20863;-81
2023/10/21 03:34:21;;;;;;;1.67;0.90;;;10.30;99.90;;;;;;5022585;28;20087;-82
2023/10/21 03:36:46;;;;;;;4.38;0.80;;;10.30;99.90;;;;;;5024772;28;20028;-82
2023/10/21 03:39:12;;;;;;;1.83;0.85;;;10.30;99.90;;;;;;5024864;28;20123;-81
2023/10/21 03:41:38;;;;;;;1.60;0.85;;;10.30;99.90;;;;;;5024195;28;20056;-81
2023/10/21 03:44:03;;;;;;;1.42;0.88;;;10.40;99.90;;;;;;5023381;28;20045;-81
2023/10/21 03:46:30;;;;;;;2.70;0.82;;;10.50;99.90;;;;;;5023548;28;20691;-82
2023/10/21 03:48:56;;;;;;;1.98;0.80;;;10.50;99.90;;;;;;5023832;28;20021;-81
2023/10/21 03:51:21;;;;;;;1.50;0.70;;;10.60;99.90;;;;;;5023993;28;20855;-82
2023/10/21 03:53:47;;;;;;;1.67;1.10;;;10.70;99.90;;;;;;5025309;28;20059;-82
2023/10/21 03:56:14;;;;;;;2.10;0.75;;;10.70;99.90;;;;;;5023810;28;20026;-82
2023/10/21 03:58:41;;;;;;;2.03;0.90;;;10.80;99.90;;;;;;5023939;28;20041;-82
2023/10/21 04:01:06;;;;;;;2.17;0.80;;;10.90;99.90;;;;;;5024627;28;20030;-82
2023/10/21 04:03:33;;;;;;;1.50;1.05;;;10.90;99.90;;;;;;5024970;28;20502;-82
2023/10/21 04:05:59;;;;;;;1.80;1.30;;;10.90;99.90;;;;;;5024742;28;20029;-82
2023/10/21 04:08:27;;;;;;;1.23;0.82;;;11.00;99.90;;;;;;5023112;28;20029;-82
2023/10/21 04:10:52;;;;;;;1.55;0.82;;;11.00;99.90;;;;;;5023915;28;20029;-81
2023/10/21 04:13:18;;;;;;;2.40;0.65;;;11.00;99.90;;;;;;5025162;28;20064;-82
2023/10/21 04:15:44;;;;;;;1.30;0.73;;;11.00;99.90;;;;;;5025023;28;20025;-82
2023/10/21 04:18:09;;;;;;;2.15;0.70;;;11.00;99.90;;;;;;5024142;28;20037;-82
2023/10/21 04:20:35;;;;;;;1.90;0.82;;;11.00;99.90;;;;;;5023208;28;20484;-82
2023/10/21 04:23:01;;;;;;;1.13;0.80;;;11.00;99.90;;;;;;5023748;28;20027;-82
2023/10/21 04:25:28;;;;;;;1.75;0.90;;;11.00;99.90;;;;;;5022123;28;21036;-82
2023/10/21 04:27:57;;;;;;;1.33;0.80;;;11.00;99.90;;;;;;5020819;28;20448;-82
2023/10/21 04:30:23;;;;;;;1.00;0.68;;;11.00;99.90;;;;;;5020909;28;20097;-82
2023/10/21 04:32:50;;;;;;;1.55;0.90;;;10.90;99.90;;;;;;5022277;28;20030;-82
2023/10/21 04:35:15;;;;;;;1.15;0.70;;;10.90;99.90;;;;;;5021577;28;20100;-82
2023/10/21 04:37:41;;;;;;;1.10;0.80;;;10.80;99.90;;;;;;5023490;28;20165;-82
2023/10/21 04:40:08;;;;;;;1.77;0.80;;;10.80;99.90;;;;;;5020766;28;20032;-82
2023/10/21 04:42:34;;;;;;;1.15;0.75;;;10.80;99.90;;;;;;5023024;28;20021;-82
2023/10/21 04:44:59;;;;;;;2.53;0.80;;;10.70;99.90;;;;;;5020136;28;20084;-82
2023/10/21 04:47:25;;;;;;;1.33;0.80;;;10.70;99.90;;;;;;5021343;28;20030;-82
2023/10/21 04:49:51;;;;;;;1.45;0.70;;;10.70;99.90;;;;;;5021456;28;20137;-82
2023/10/21 04:52:17;;;;;;;1.88;0.90;;;10.60;99.90;;;;;;5022647;28;20021;-82
2023/10/21 04:54:43;;;;;;;1.60;1.00;;;10.60;99.90;;;;;;5018955;28;20034;-81
2023/10/21 04:57:10;;;;;;;1.42;0.80;;;10.50;99.90;;;;;;5019893;28;20037;-81
2023/10/21 04:59:36;;;;;;;2.33;0.70;;;10.50;99.90;;;;;;5019519;28;20060;-82
2023/10/21 05:02:03;;;;;;;1.70;0.70;;;10.40;99.90;;;;;;5019390;28;20033;-81
2023/10/21 05:04:29;;;;;;;3.05;0.80;;;10.40;99.90;;;;;;5016888;28;20092;-82
2023/10/21 05:06:55;;;;;;;1.70;1.10;;;10.40;99.90;;;;;;5019681;28;20520;-81
2023/10/21 05:09:20;;;;;;;1.38;0.80;;;10.30;99.90;;;;;;5018768;28;20029;-81
2023/10/21 05:11:46;;;;;;;1.30;0.80;;;10.30;99.90;;;;;;5020152;28;20124;-81
2023/10/21 05:14:12;;;;;;;8.20;1.65;;;10.30;99.90;;;;;;5021037;28;20400;-82
2023/10/21 05:16:38;;;;;;;0.85;0.73;;;10.30;99.90;;;;;;5021756;28;20079;-82
2023/10/21 05:19:04;;;;;;;1.98;1.17;;;10.30;99.90;;;;;;5018841;28;20086;-82
2023/10/21 05:21:31;;;;;;;2.30;1.48;;;10.30;99.90;;;;;;5019219;28;20057;-82
2023/10/21 05:23:57;;;;;;;4.15;1.73;;;10.20;99.90;;;;;;5028627;28;20123;-82
2023/10/21 05:26:22;;;;;;;2.03;1.00;;;10.20;99.90;;;;;;5028801;28;20040;-81
2023/10/21 05:28:48;;;;;;;1.98;1.00;;;10.10;99.90;;;;;;5023032;28;20034;-81
2023/10/21 05:31:14;;;;;;;1.77;1.17;;;10.10;99.90;;;;;;5021026;28;20477;-81
2023/10/21 05:33:40;;;;;;;2.53;0.90;;;10.10;99.90;;;;;;5022259;28;20826;-81
2023/10/21 05:36:06;;;;;;;2.38;1.10;;;10.00;99.90;;;;;;5020554;28;20022;-81
2023/10/21 05:38:32;;;;;;;1.48;0.90;;;10.00;99.90;;;;;;5021745;28;20044;-81
2023/10/21 05:40:58;;;;;;;1.50;0.90;;;10.00;99.90;;;;;;5018516;28;20041;-82
2023/10/21 05:43:23;;;;;;;2.08;1.17;;;10.00;99.90;;;;;;5020439;28;20040;-82
2023/10/21 05:45:49;;;;;;;1.73;0.90;;;9.90;99.90;;;;;;5019345;28;20734;-80
2023/10/21 05:48:14;;;;;;;3.03;0.88;;;9.90;99.90;;;;;;5018835;28;20044;-80
2023/10/21 05:50:40;;;;;;;2.60;0.90;;;9.90;99.90;;;;;;5019693;28;20108;-83
2023/10/21 05:53:06;;;;;;;2.38;1.05;;;9.90;99.90;;;;;;5016804;28;20029;-88
2023/10/21 05:55:32;;;;;;;2.08;1.10;;;9.90;99.90;;;;;;5012432;28;20032;-89
2023/10/21 05:57:57;;;;;;;1.30;0.90;;;9.90;99.90;;;;;;5014862;28;20117;-90
2023/10/21 06:00:23;;;;;;;2.40;0.90;;;9.90;99.90;;;;;;5014968;28;20042;-89
2023/10/21 06:02:49;;;;;;;2.45;0.80;;;9.90;99.90;;;;;;5015603;28;20033;-89
2023/10/21 06:05:15;;;;;;;1.77;1.00;;;9.90;99.90;;;;;;5011975;28;20956;-89
2023/10/21 06:07:43;;;;;;;2.83;1.00;;;9.90;99.90;;;;;;5014145;28;20515;-90
2023/10/21 06:10:09;;;;;;;1.43;0.93;;;9.90;99.90;;;;;;5014448;28;20032;-89
2023/10/21 06:12:35;;;;;;;3.40;0.97;;;9.90;99.90;;;;;;5013422;28;20033;-89
2023/10/21 06:15:01;;;;;;;2.08;1.00;;;9.80;99.90;;;;;;5014342;28;20039;-89
2023/10/21 06:17:27;;;;;;;1.30;0.80;;;9.90;99.90;;;;;;5014911;28;20037;-88
2023/10/21 06:19:53;;;;;;;5.38;1.00;;;9.80;99.90;;;;;;5015808;28;20040;-90
2023/10/21 06:22:19;;;;;;;2.47;0.98;;;9.80;99.90;;;;;;5014086;28;20030;-90
2023/10/21 06:24:46;;;;;;;1.27;0.80;;;9.90;99.90;;;;;;5016420;28;20110;-89
2023/10/21 06:27:12;;;;;;;2.22;1.23;;;9.90;99.90;;;;;;5017380;28;20034;-89
2023/10/21 06:29:37;;;;;;;3.17;1.20;;;10.00;99.90;;;;;;5015983;28;20084;-89
2023/10/21 06:32:08;;;;;;;1.60;0.80;;;10.10;99.90;;;;;;5019186;28;20098;-89
2023/10/21 06:34:34;;;;;;;1.08;0.90;;;10.10;99.90;;;;;;5015357;28;20038;-90
2023/10/21 06:37:00;;;;;;;2.17;1.00;;;10.20;99.90;;;;;;5020244;28;20029;-92
2023/10/21 06:39:26;;;;;;;2.17;0.98;;;10.30;99.90;;;;;;5021452;28;20114;-89
2023/10/21 06:41:52;;;;;;;2.42;1.10;;;10.40;99.90;;;;;;5015081;28;20919;-88
2023/10/21 06:44:17;;;;;;;1.55;0.90;;;10.50;99.90;;;;;;5013554;28;20344;-89
2023/10/21 06:46:43;;;;;;;1.80;1.10;;;10.60;99.90;;;;;;5015570;28;20041;-89
2023/10/21 06:49:09;;;;;;;1.88;1.05;;;10.70;99.90;;;;;;5016073;28;20052;-89
2023/10/21 06:51:39;;;;;;;2.00;1.00;;;10.80;99.90;;;;;;5014406;28;20033;-90
2023/10/21 06:54:07;;;;;;;1.40;0.80;;;10.90;99.90;;;;;;5014255;28;20038;-90
2023/10/21 06:56:33;;;;;;;3.50;1.10;;;11.00;99.90;;;;;;5012160;28;20037;-89
2023/10/21 06:58:59;;;;;;;3.17;1.02;;;11.10;99.90;;;;;;5017183;28;20834;-89
2023/10/21 07:01:25;;;;;;;1.77;1.00;;;11.20;99.90;;;;;;5017712;28;20042;-90
2023/10/21 07:03:50;;;;;;;1.48;1.00;;;11.30;99.90;;;;;;5016823;28;20059;-89
2023/10/21 07:06:20;;;;;;;1.40;0.90;;;11.40;99.90;;;;;;5017789;28;20029;-90
2023/10/21 07:08:46;;;;;;;1.15;0.95;;;11.50;99.90;;;;;;5013938;28;20665;-89
2023/10/21 07:11:12;;;;;;;1.42;1.00;;;11.70;99.90;;;;;;5018092;28;20030;-89
2023/10/21 07:13:38;;;;;;;1.98;0.88;;;11.80;99.90;;;;;;5014810;28;20492;-89
2023/10/21 07:16:10;;;;;;;1.08;0.75;;;12.00;99.90;;;;;;5017756;28;20034;-90
2023/10/21 07:18:40;;;;;;;2.60;0.80;;;12.20;99.90;;;;;;5016901;28;20134;-90
2023/10/21 07:21:06;;;;;;;2.35;0.80;;;12.30;99.90;;;;;;5016288;28;20091;-90
2023/10/21 07:23:32;;;;;;;1.02;0.90;;;12.50;99.90;;;;;;5017275;28;20205;-90
2023/10/21 07:25:58;;;;;;;1.33;0.90;;;12.80;99.90;;;;;;5017006;28;20136;-90
2023/10/21 07:28:23;;;;;;;2.58;1.30;;;13.00;99.90;;;;;;5016401;28;20122;-90
2023/10/21 07:30:49;;;;;;;3.55;1.90;;;13.10;99.90;;;;;;5017761;28;20060;-90
2023/10/21 07:33:14;;;;;;;1.98;1.60;;;13.40;99.90;;;;;;5017623;28;20037;-93
2023/10/21 07:35:40;;;;;;;2.05;1.80;;;13.60;99.90;;;;;;5015932;28;20112;-90
2023/10/21 07:38:06;;;;;;;2.33;1.15;;;13.70;99.90;;;;;;5017028;28;20140;-89
2023/10/21 07:40:31;;;;;;;2.60;1.00;;;13.90;99.90;;;;;;5018240;28;20132;-86
2023/10/21 07:42:58;;;;;;;2.13;0.73;;;14.10;99.90;;;;;;5009844;28;20120;-87
2023/10/21 07:45:24;;;;;;;4.32;0.82;;;14.30;99.90;;;;;;5014860;28;20037;-85
2023/10/21 07:47:50;;;;;;;0.73;0.70;;;14.40;99.90;;;;;;5018077;28;20029;-88
2023/10/21 07:50:17;;;;;;;2.92;0.70;;;14.60;99.90;;;;;;5017818;28;20036;-88
2023/10/21 07:52:43;;;;;;;2.20;0.70;;;14.70;99.90;;;;;;5019235;28;20036;-84
2023/10/21 07:55:12;;;;;;;1.00;0.60;;;14.90;99.90;;;;;;5016875;28;20034;-89
2023/10/21 07:57:38;;;;;;;0.50;0.50;;;15.20;99.90;;;;;;5016669;28;20028;-86
2023/10/21 08:00:05;;;;;;;0.52;0.50;;;15.30;99.90;;;;;;5018161;28;20129;-86
2023/10/21 08:02:31;;;;;;;1.02;0.70;;;15.50;99.90;;;;;;5019997;28;20065;-85
2023/10/21 08:04:56;;;;;;;2.15;0.70;;;15.70;99.90;;;;;;5018146;28;20026;-86
2023/10/21 08:07:22;;;;;;;1.00;0.77;;;15.90;99.90;;;;;;5015219;28;20038;-83
2023/10/21 08:09:48;;;;;;;1.45;0.60;;;16.00;99.90;;;;;;5014658;28;20065;-86
2023/10/21 08:12:13;;;;;;;1.77;0.88;;;16.20;99.90;;;;;;5018618;28;20873;-89
2023/10/21 08:14:40;;;;;;;5.25;0.60;;;16.30;99.90;;;;;;5016535;28;20025;-85
2023/10/21 08:17:07;;;;;;;0.80;0.60;;;16.50;99.90;;;;;;5021087;28;20026;-90
2023/10/21 08:19:33;;;;;;;2.45;0.60;;;16.60;99.90;;;;;;5045084;28;20030;-88
2023/10/21 08:22:00;;;;;;;0.68;0.52;;;16.70;99.90;;;;;;5043971;28;20037;-85
2023/10/21 08:24:26;;;;;;;0.55;0.55;;;16.80;99.90;;;;;;5030651;28;20399;-85
2023/10/21 08:26:52;;;;;;;0.70;0.52;;;16.80;99.90;;;;;;5025375;28;20100;-86
2023/10/21 08:29:17;;;;;;;0.43;0.43;;;16.90;99.90;;;;;;5017767;28;20025;-83
2023/10/21 08:31:43;;;;;;;0.65;0.57;;;17.00;99.90;;;;;;5015273;28;20257;-86
2023/10/21 08:34:18;;;;;;;2.03;0.63;;;17.10;99.90;;;;;;5014627;28;20034;-89
2023/10/21 08:36:43;;;;;;;1.65;0.50;;;17.10;99.90;;;;;;5016094;28;20064;-87
2023/10/21 08:39:09;;;;;;;0.60;0.50;;;17.20;99.90;;;;;;5011742;28;21087;-87
2023/10/21 08:41:37;;;;;;;0.65;0.50;;;17.30;99.90;;;;;;5017123;28;20437;-84
2023/10/21 08:44:03;;;;;;;0.77;0.40;;;17.30;99.90;;;;;;5014288;28;20063;-84
2023/10/21 08:46:32;;;;;;;1.35;0.55;;;17.50;99.90;;;;;;5016233;28;20112;-85
2023/10/21 08:48:58;;;;;;;1.85;0.50;;;17.60;99.90;;;;;;5016678;28;20026;-85
2023/10/21 08:51:26;;;;;;;0.73;0.60;;;17.60;99.90;;;;;;5019205;28;20096;-85
2023/10/21 08:54:05;;;;;;;1.52;0.40;;;17.50;99.90;;;;;;5016142;28;20080;-85
2023/10/21 08:56:33;;;;;;;0.73;0.45;;;17.50;99.90;;;;;;5015458;28;20033;-85
2023/10/21 08:58:59;;;;;;;0.30;0.30;;;17.50;99.90;;;;;;5017397;28;20032;-85
2023/10/21 09:01:25;;;;;;;0.40;0.40;;;17.50;99.90;;;;;;5016317;28;20048;-85
2023/10/21 09:03:51;;;;;;;0.38;0.30;;;17.60;99.90;;;;;;5016280;28;20026;-87
2023/10/21 09:06:17;;;;;;;1.85;0.40;;;17.70;99.90;;;;;;5017193;28;20029;-85
2023/10/21 09:08:44;;;;;;;0.30;0.30;;;17.70;99.90;;;;;;5017883;28;20026;-83
2023/10/21 09:11:11;;;;;;;2.00;0.50;;;17.80;99.90;;;;;;5020082;28;20037;-85
2023/10/21 09:13:38;;;;;;;0.63;0.52;;;17.90;99.90;;;;;;5018104;28;20041;-84
2023/10/21 09:16:17;;;;;;;1.17;0.50;;;18.00;99.90;;;;;;5019589;28;20045;-84
2023/10/21 09:19:08;;;;;;;1.25;0.60;;;18.00;99.90;;;;;;5015693;28;20021;-86
2023/10/21 09:21:41;;;;;;;3.13;0.50;;;17.90;99.90;;;;;;5015242;28;20040;-87
2023/10/21 09:24:09;;;;;;;2.45;0.50;;;17.80;99.90;;;;;;5015176;28;20029;-86
2023/10/21 09:26:41;;;;;;;0.40;0.40;;;17.70;99.90;;;;;;5014670;28;20037;-86
2023/10/21 09:29:16;;;;;;;0.63;0.57;;;17.60;99.90;;;;;;5015678;28;20033;-87
2023/10/21 09:31:48;;;;;;;;;;;17.50;99.90;;;;;;5016773;28;20037;-86
2023/10/21 09:34:30;;;;;;;0.57;0.50;;;17.40;99.90;;;;;;5013861;28;19913;-87
2023/10/21 09:36:57;;;;;;;0.47;0.47;;;17.50;99.90;;;;;;5013663;28;20049;-86
2023/10/21 09:39:26;;;;;;;2.97;0.50;;;17.50;99.90;;;;;;5011208;28;20025;-91
2023/10/21 09:41:52;;;;;;;0.40;0.38;;;17.40;99.90;;;;;;5016020;28;20034;-89
2023/10/21 09:44:18;;;;;;;0.52;0.43;;;17.30;99.90;;;;;;5011437;28;20040;-90
2023/10/21 09:46:45;;;;;;;0.43;0.40;;;17.10;99.90;;;;;;5014292;28;20037;-87
2023/10/21 09:49:13;;;;;;;0.65;0.45;;;16.90;99.90;;;;;;5007860;28;20030;-91
2023/10/21 09:51:52;;;;;;;0.52;0.40;;;16.90;99.90;;;;;;5014997;28;20092;-89
2023/10/21 09:54:26;;;;;;;0.45;0.45;;;17.00;99.90;;;;;;5014797;28;20026;-88
2023/10/21 09:56:53;;;;;;;1.90;0.50;;;17.20;99.90;;;;;;5006850;28;20043;-91
2023/10/21 09:59:20;;;;;;;0.52;0.43;;;17.40;99.90;;;;;;5007043;28;20094;-90
2023/10/21 10:01:46;;;;;;;1.92;0.50;;;17.50;99.90;;;;;;5006075;28;20037;-93
2023/10/21 10:04:13;;;;;;;0.88;0.40;;;17.60;99.90;;;;;;5005443;28;20033;-90
2023/10/21 10:06:39;;;;;;;2.45;0.60;;;17.70;99.90;;;;;;5007308;28;20060;-92
2023/10/21 10:09:06;;;;;;;2.53;0.75;;;17.70;99.90;;;;;;5005960;28;20116;-91
2023/10/21 10:11:34;;;;;;;1.73;0.88;;;17.90;99.90;;;;;;5008948;28;20527;-89
2023/10/21 10:14:02;;;;;;;3.03;0.80;;;18.00;99.90;;;;;;5010126;28;20272;-89
2023/10/21 10:16:28;;;;;;;1.23;0.60;;;18.00;99.90;;;;;;5009294;28;20033;-87
2023/10/21 10:18:56;;;;;;;1.50;0.50;;;18.20;99.90;;;;;;5005854;28;20515;-89
2023/10/21 10:21:22;;;;;;;2.42;0.82;;;18.20;99.90;;;;;;5009410;28;21444;-89
2023/10/21 10:23:50;;;;;;;0.40;0.40;;;18.20;99.90;;;;;;5008453;28;20128;-89
2023/10/21 10:26:27;;;;;;;2.03;0.52;;;18.20;99.90;;;;;;5009604;28;20404;-89
2023/10/21 10:28:53;;;;;;;2.67;0.60;;;18.00;99.90;;;;;;5007863;28;20037;-88
2023/10/21 10:31:21;;;;;;;3.40;0.55;;;17.80;99.90;;;;;;5008975;28;20044;-88
2023/10/21 10:33:51;;;;;;;2.85;0.50;;;17.70;99.90;;;;;;5013284;28;20088;-78
2023/10/21 10:36:28;;;;;;;0.55;0.40;;;17.60;99.90;;;;;;5013554;28;20412;-83
2023/10/21 10:38:54;;;;;;;0.88;0.60;;;17.50;99.90;;;;;;5013973;28;20033;-77
2023/10/21 10:41:20;;;;;;;2.15;0.70;;;17.60;99.90;;;;;;5013456;28;20037;-79
2023/10/21 10:44:01;;;;;;;0.82;0.40;;;17.70;99.90;;;;;;5012217;28;20022;-79
2023/10/21 10:46:28;;;;;;;1.75;0.50;;;17.80;99.90;;;;;;5014615;28;20045;-81
2023/10/21 10:48:54;;;;;;;0.85;0.40;;;17.90;99.90;;;;;;5014003;28;20033;-78
2023/10/21 10:51:23;;;;;;;2.70;0.50;;;17.90;99.90;;;;;;5012813;28;20076;-82
2023/10/21 10:53:59;;;;;;;4.65;0.75;;;17.80;99.90;;;;;;5013918;28;20937;-78
2023/10/21 10:56:43;;;;;;;2.05;0.50;;;17.70;99.90;;;;;;5012972;28;20034;-74
2023/10/21 10:59:18;;;;;;;0.45;0.43;;;17.70;99.90;;;;;;5013409;28;20030;-83
2023/10/21 11:01:45;;;;;;;;;;;17.70;99.90;;;;;;5014072;28;20041;-79
2023/10/21 11:04:10;;;;;;;0.40;0.40;;;17.70;99.90;;;;;;5013738;28;19920;-82
2023/10/21 11:06:42;;;;;;;2.30;0.45;;;17.60;99.90;;;;;;5012996;28;20029;-78
2023/10/21 11:09:16;;;;;;;2.63;0.55;;;17.60;99.90;;;;;;5013976;28;20026;-81
2023/10/21 11:11:50;;;;;;;0.32;0.32;;;17.60;99.90;;;;;;5012860;28;20117;-77
2023/10/21 11:14:16;;;;;;;0.67;0.53;;;17.60;99.90;;;;;;5008308;28;20060;-76
2023/10/21 11:16:43;;;;;;;0.68;0.50;;;17.60;99.90;;;;;;5019505;28;21395;-81
2023/10/21 11:19:09;;;;;;;1.00;0.60;;;17.60;99.90;;;;;;5010984;28;20022;-78
2023/10/21 11:21:39;;;;;;;1.20;0.40;;;17.70;99.90;;;;;;5009601;28;20049;-79
2023/10/21 11:24:09;;;;;;;0.65;0.47;;;17.80;99.90;;;;;;5010810;28;20029;-74
2023/10/21 11:26:35;;;;;;;1.13;0.50;;;18.00;99.90;;;;;;5011727;28;20026;-77
2023/10/21 11:29:05;;;;;;;0.45;0.40;;;18.20;99.90;;;;;;5012094;28;20412;-77
2023/10/21 11:31:31;;;;;;;0.75;0.50;;;18.40;99.90;;;;;;5012197;28;20164;-76
2023/10/21 11:34:13;;;;;;;3.90;0.55;;;18.60;99.90;;;;;;5012142;28;20096;-76
2023/10/21 11:36:46;;;;;;;0.57;0.40;;;18.80;99.90;;;;;;5010414;28;20116;-76
2023/10/21 11:39:14;;;;;;;0.70;0.40;;;18.90;99.90;;;;;;5009535;28;20030;-78
2023/10/21 11:41:48;;;;;;;1.00;0.40;;;19.10;99.90;;;;;;5013327;28;20033;-76
2023/10/21 11:44:23;;;;;;;0.52;0.40;;;19.20;99.90;;;;;;5012661;28;20120;-85
2023/10/21 11:46:49;;;;;;;1.20;0.40;;;19.30;99.90;;;;;;5015580;28;20036;-87
2023/10/21 11:49:15;;;;;;;0.47;0.40;;;19.40;99.90;;;;;;5016540;28;20018;-90
2023/10/21 11:51:49;;;;;;;0.90;0.40;;;19.40;99.90;;;;;;5017754;28;20032;-85
2023/10/21 11:54:35;;;;;;;1.63;0.38;;;19.30;99.90;;;;;;5015446;28;20500;-88
2023/10/21 12:08:25;;;;;;;0.30;0.30;;;18.40;99.90;;;;;;5015955;28;20067;-85
2023/10/21 12:22:12;;;;;;;0.40;0.40;;;17.50;99.90;;;;;;4957380;28;20086;-86
2023/10/21 12:40:39;;;;;;;0.40;0.40;;;16.80;99.90;;;;;;5016889;28;20034;-86
2023/10/21 12:45:49;;;;;;;2.55;0.57;;;16.70;99.90;;;;;;5014886;28;20021;-85
2023/10/21 12:48:18;;;;;;;1.65;0.40;;;16.70;99.90;;;;;;5015402;28;20030;-84
2023/10/21 12:50:49;;;;;;;0.50;0.50;;;16.70;99.90;;;;;;5016364;28;20087;-85
2023/10/21 12:53:15;;;;;;;1.33;0.77;;;16.70;99.90;;;;;;5014815;28;20105;-85
2023/10/21 12:55:41;;;;;;;0.60;0.50;;;16.70;99.90;;;;;;5015542;28;20079;-85
2023/10/21 12:58:06;;;;;;;0.68;0.60;;;16.70;99.90;;;;;;5019105;28;21516;-86
2023/10/21 13:00:32;;;;;;;1.65;0.85;;;16.60;99.90;;;;;;5015505;28;20540;-85
2023/10/21 13:02:58;;;;;;;0.50;0.40;;;16.60;99.90;;;;;;5016418;28;20033;-85
2023/10/21 13:05:24;;;;;;;2.22;0.40;;;16.60;99.90;;;;;;5017431;28;20242;-85
2023/10/21 13:07:49;;;;;;;0.77;0.60;;;16.50;99.90;;;;;;5014906;28;21396;-85
2023/10/21 13:10:15;;;;;;;1.55;0.40;;;16.50;99.90;;;;;;5019634;28;20392;-85
2023/10/21 13:12:41;;;;;;;0.43;0.40;;;16.50;99.90;;;;;;5019838;28;20082;-85
2023/10/21 13:15:16;;;;;;;0.93;0.50;;;16.50;99.90;;;;;;5014695;28;20396;-86
2023/10/21 13:17:42;;;;;;;1.17;0.90;;;16.40;99.90;;;;;;5014060;28;20048;-85
2023/10/21 13:20:17;;;;;;;1.33;0.50;;;16.40;99.90;;;;;;5015181;28;20041;-85
2023/10/21 13:22:46;;;;;;;;;;;16.30;99.90;;;;;;5014674;28;20762;-85
2023/10/21 13:25:13;;;;;;;1.95;0.60;;;16.30;99.90;;;;;;5012207;28;20042;-85
2023/10/21 13:27:42;;;;;;;2.10;0.52;;;16.20;99.90;;;;;;5014822;28;20030;-85
2023/10/21 13:30:13;;;;;;;0.80;0.40;;;16.20;99.90;;;;;;5014947;28;20084;-85
2023/10/21 13:32:46;;;;;;;0.88;0.60;;;16.10;99.90;;;;;;5013753;28;20025;-85